createdAt,value
2022-12-24T00:04:11.819Z,5.33
2022-12-24T00:09:33.984Z,5.57
2022-12-24T00:14:56.228Z,4.93
2022-12-24T00:20:18.616Z,5.10
2022-12-24T00:25:41.085Z,5.37
2022-12-24T00:31:18.387Z,4.97
2022-12-24T00:36:40.948Z,4.47
2022-12-24T00:42:03.333Z,5.07
2022-12-24T00:47:25.721Z,4.97
2022-12-24T00:52:48.894Z,4.80
2022-12-24T00:58:11.487Z,4.80
2022-12-24T01:03:37.107Z,4.97
2022-12-24T01:08:59.281Z,4.83
2022-12-24T01:14:21.877Z,5.07
2022-12-24T01:19:44.167Z,5.30
2022-12-24T01:25:06.954Z,5.10
2022-12-24T01:30:29.329Z,5.57
2022-12-24T01:35:51.746Z,5.70
2022-12-24T01:41:38.859Z,5.67
2022-12-24T01:47:27.827Z,5.87
2022-12-24T01:52:50.564Z,5.17
2022-12-24T01:58:15.752Z,5.60
2022-12-24T02:03:38.336Z,6.30
2022-12-24T02:09:00.507Z,6.53
2022-12-24T02:14:23.377Z,6.60
2022-12-24T02:20:19.680Z,6.20
2022-12-24T02:26:02.976Z,6.43
2022-12-24T02:32:04.721Z,6.43
2022-12-24T02:37:32.926Z,6.17
2022-12-24T02:43:08.359Z,7.30
2022-12-24T02:48:31.964Z,8.43
2022-12-24T02:53:54.747Z,7.80
2022-12-24T02:59:29.818Z,8.23
2022-12-24T03:05:04.325Z,8.63
2022-12-24T03:10:46.689Z,8.97
2022-12-24T03:16:13.272Z,7.67
2022-12-24T03:21:39.415Z,8.13
2022-12-24T03:27:03.246Z,8.27
2022-12-24T03:32:29.133Z,8.70
2022-12-24T03:37:51.923Z,8.17
2022-12-24T03:43:14.223Z,7.73
2022-12-24T03:48:36.775Z,8.93
2022-12-24T03:53:59.756Z,8.47
2022-12-24T03:59:21.938Z,8.40
2022-12-24T04:04:44.293Z,7.27
2022-12-24T04:10:07.181Z,7.03
2022-12-24T04:15:29.593Z,8.03
2022-12-24T04:20:52.501Z,7.00
2022-12-24T04:26:15.276Z,7.27
2022-12-24T04:31:37.766Z,7.30
2022-12-24T04:37:00.002Z,7.20
2022-12-24T04:42:22.170Z,6.43
2022-12-24T04:47:44.544Z,5.87
2022-12-24T04:53:06.923Z,6.93
2022-12-24T04:58:29.449Z,6.67
2022-12-24T05:03:52.511Z,7.23
2022-12-24T05:09:15.013Z,7.20
2022-12-24T05:14:37.320Z,7.33
2022-12-24T05:19:59.473Z,6.80
2022-12-24T05:25:40.807Z,5.80
2022-12-24T05:31:03.064Z,7.30
2022-12-24T05:36:25.878Z,7.40
2022-12-24T05:41:48.366Z,6.73
2022-12-24T05:47:10.809Z,7.03
2022-12-24T05:52:33.268Z,6.47
2022-12-24T05:57:55.538Z,6.57
2022-12-24T06:03:17.942Z,6.13
2022-12-24T06:08:41.984Z,6.57
2022-12-24T06:14:04.566Z,6.93
2022-12-24T06:19:26.972Z,7.20
2022-12-24T06:24:49.496Z,6.77
2022-12-24T06:30:15.019Z,7.87
2022-12-24T06:35:37.260Z,6.63
2022-12-24T06:40:59.882Z,7.67
2022-12-24T06:46:22.514Z,6.67
2022-12-24T06:51:45.036Z,7.37
2022-12-24T06:57:07.477Z,7.27
2022-12-24T07:02:30.171Z,6.70
2022-12-24T07:07:52.783Z,7.37
2022-12-24T07:13:15.466Z,7.80
2022-12-24T07:18:37.836Z,10.03
2022-12-24T07:24:00.477Z,10.10
2022-12-24T07:29:22.971Z,10.13
2022-12-24T07:34:45.223Z,11.97
2022-12-24T07:40:09.711Z,8.17
2022-12-24T07:45:32.454Z,8.67
2022-12-24T07:50:56.885Z,8.20
2022-12-24T07:56:19.333Z,8.77
2022-12-24T08:01:42.041Z,7.80
2022-12-24T08:07:06.038Z,8.23
2022-12-24T08:12:28.201Z,8.23
2022-12-24T08:17:50.399Z,8.50
2022-12-24T08:23:13.350Z,8.63
2022-12-24T08:28:36.228Z,8.57
2022-12-24T08:33:58.705Z,9.67
2022-12-24T08:39:21.390Z,8.53
2022-12-24T08:44:43.701Z,9.03
2022-12-24T08:50:07.127Z,9.63
2022-12-24T08:55:29.619Z,7.73
2022-12-24T09:00:52.166Z,8.87
2022-12-24T09:06:18.664Z,8.17
2022-12-24T09:11:41.289Z,8.63
2022-12-24T09:17:03.544Z,9.10
2022-12-24T09:22:25.933Z,7.50
2022-12-24T09:27:48.640Z,8.40
2022-12-24T09:33:11.336Z,7.23
2022-12-24T09:38:34.559Z,8.47
2022-12-24T09:44:07.104Z,7.97
2022-12-24T09:49:41.068Z,8.57
2022-12-24T09:55:28.639Z,8.23
2022-12-24T10:00:51.786Z,8.40
2022-12-24T10:06:26.962Z,7.90
2022-12-24T10:12:21.241Z,7.57
2022-12-24T10:17:57.646Z,9.03
2022-12-24T10:23:32.556Z,13.63
2022-12-24T10:29:09.231Z,12.47
2022-12-24T10:34:38.313Z,7.83
2022-12-24T10:40:02.741Z,9.40
2022-12-24T10:45:29.999Z,8.47
2022-12-24T10:51:06.208Z,7.40
2022-12-24T10:56:28.890Z,7.83
2022-12-24T11:01:51.869Z,7.50
2022-12-24T11:07:20.692Z,8.23
2022-12-24T11:13:05.826Z,6.60
2022-12-24T11:18:36.683Z,7.43
2022-12-24T11:24:27.081Z,8.00
2022-12-24T11:29:49.735Z,7.53
2022-12-24T11:35:23.452Z,8.37
2022-12-24T11:40:49.656Z,7.33
2022-12-24T11:46:39.899Z,7.83
2022-12-24T11:52:12.238Z,7.00
2022-12-24T11:57:50.403Z,10.27
2022-12-24T12:03:32.849Z,10.20
2022-12-24T12:09:05.963Z,10.03
2022-12-24T12:14:35.390Z,12.00
2022-12-24T12:20:05.445Z,19.37
2022-12-24T12:25:46.627Z,12.37
2022-12-24T12:31:15.787Z,9.73
2022-12-24T12:37:14.217Z,10.13
2022-12-24T12:42:39.765Z,11.20
2022-12-24T12:48:21.155Z,10.43
2022-12-24T12:54:04.789Z,12.57
2022-12-24T12:59:27.051Z,11.60
2022-12-24T13:04:58.406Z,12.47
2022-12-24T13:10:42.300Z,11.43
2022-12-24T13:16:36.887Z,11.83
2022-12-24T13:21:59.531Z,16.03
2022-12-24T13:27:29.506Z,16.03
2022-12-24T13:32:53.780Z,11.43
2022-12-24T13:38:28.459Z,11.30
2022-12-24T13:44:14.790Z,11.47
2022-12-24T13:49:41.378Z,10.77
2022-12-24T13:55:15.239Z,10.60
2022-12-24T14:00:42.778Z,9.57
2022-12-24T14:06:20.873Z,10.40
2022-12-24T14:12:01.714Z,9.83
2022-12-24T14:17:29.854Z,11.63
2022-12-24T14:22:52.423Z,11.23
2022-12-24T14:28:22.069Z,11.47
2022-12-24T14:33:45.499Z,10.77
2022-12-24T14:39:16.868Z,8.90
2022-12-24T14:45:06.567Z,7.73
2022-12-24T14:50:34.836Z,8.30
2022-12-24T14:55:57.423Z,8.23
2022-12-24T15:01:24.767Z,10.83
2022-12-24T15:06:54.676Z,17.97
2022-12-24T15:12:17.019Z,12.57
2022-12-24T15:17:39.633Z,11.40
2022-12-24T15:23:02.366Z,11.00
2022-12-24T15:28:24.740Z,9.90
2022-12-24T15:33:48.691Z,8.03
2022-12-24T15:39:16.902Z,7.97
2022-12-24T15:45:03.487Z,7.33
2022-12-24T15:50:33.252Z,7.03
2022-12-24T15:56:28.375Z,5.73
2022-12-24T16:01:50.767Z,6.77
2022-12-24T16:07:24.461Z,7.67
2022-12-24T16:12:47.157Z,7.20
2022-12-24T16:18:16.955Z,7.10
2022-12-24T16:23:47.591Z,6.23
2022-12-24T16:29:13.164Z,6.43
2022-12-24T16:34:35.795Z,6.73
2022-12-24T16:39:59.126Z,6.57
2022-12-24T16:45:22.405Z,6.80
2022-12-24T16:50:44.944Z,6.07
2022-12-24T16:56:07.497Z,5.97
2022-12-24T17:01:30.780Z,4.87
2022-12-24T17:06:53.135Z,5.87
2022-12-24T17:12:15.720Z,5.73
2022-12-24T17:17:38.352Z,5.10
2022-12-24T17:23:00.728Z,6.20
2022-12-24T17:28:23.087Z,5.33
2022-12-24T17:33:45.662Z,4.87
2022-12-24T17:39:07.892Z,4.60
2022-12-24T17:44:30.729Z,4.47
2022-12-24T17:49:53.460Z,4.20
2022-12-24T17:55:15.766Z,4.33
2022-12-24T18:00:38.529Z,3.97
2022-12-24T18:06:09.155Z,4.47
2022-12-24T18:11:34.069Z,5.10
2022-12-24T18:16:56.380Z,4.53
2022-12-24T18:22:18.722Z,4.97
2022-12-24T18:27:41.366Z,4.30
2022-12-24T18:33:03.730Z,4.83
2022-12-24T18:38:29.834Z,6.03
2022-12-24T18:43:53.321Z,5.80
2022-12-24T18:49:15.697Z,7.17
2022-12-24T18:54:40.000Z,6.13
2022-12-24T19:00:02.164Z,8.37
2022-12-24T19:05:24.555Z,7.67
2022-12-24T19:10:46.882Z,8.13
2022-12-24T19:16:09.550Z,7.57
2022-12-24T19:21:32.630Z,8.10
2022-12-24T19:26:55.073Z,8.37
2022-12-24T19:32:17.746Z,6.30
2022-12-24T19:37:40.117Z,7.10
2022-12-24T19:43:02.629Z,5.70
2022-12-24T19:48:24.843Z,5.93
2022-12-24T19:53:48.274Z,6.23
2022-12-24T19:59:10.779Z,6.70
2022-12-24T20:04:33.184Z,7.00
2022-12-24T20:09:55.518Z,6.03
2022-12-24T20:15:18.029Z,6.30
2022-12-24T20:20:41.494Z,7.27
2022-12-24T20:26:05.577Z,7.63
2022-12-24T20:31:29.954Z,6.93
2022-12-24T20:36:52.786Z,7.20
2022-12-24T20:42:15.700Z,6.90
2022-12-24T20:47:38.907Z,6.60
2022-12-24T20:53:01.403Z,7.37
2022-12-24T20:58:23.707Z,7.23
2022-12-24T21:03:46.313Z,6.47
2022-12-24T21:09:09.055Z,6.83
2022-12-24T21:14:31.536Z,6.63
2022-12-24T21:19:53.826Z,9.17
2022-12-24T21:25:16.127Z,6.60
2022-12-24T21:30:40.501Z,4.83
2022-12-24T21:36:02.816Z,4.70
2022-12-24T21:41:26.239Z,5.53
2022-12-24T21:46:49.515Z,5.53
2022-12-24T21:52:11.684Z,5.33
2022-12-24T21:57:52.595Z,5.27
2022-12-24T22:03:16.063Z,5.00
2022-12-24T22:08:56.900Z,4.83
2022-12-24T22:14:19.181Z,5.20
2022-12-24T22:19:43.408Z,4.73
2022-12-24T22:25:06.375Z,4.80
2022-12-24T22:30:29.584Z,4.97
2022-12-24T22:35:52.109Z,4.50
2022-12-24T22:41:15.041Z,4.23
2022-12-24T22:46:37.279Z,4.83
2022-12-24T22:51:59.698Z,5.07
2022-12-24T22:57:21.882Z,4.97
2022-12-24T23:02:44.510Z,4.53
2022-12-24T23:08:07.967Z,5.20
2022-12-24T23:13:48.483Z,4.20
2022-12-24T23:19:10.966Z,4.40
2022-12-24T23:24:34.854Z,4.47
2022-12-24T23:29:57.553Z,4.33
2022-12-24T23:35:19.950Z,4.63
2022-12-24T23:40:42.671Z,4.50
2022-12-24T23:46:05.412Z,5.00
2022-12-24T23:51:28.394Z,5.03
2022-12-24T23:56:50.720Z,4.13
